createdAt,value
2018-11-27T00:00:35.820Z,23.50
2018-11-27T00:03:07.465Z,23.50
2018-11-27T00:05:37.590Z,23.93
2018-11-27T00:08:07.389Z,24.20
2018-11-27T00:10:38.354Z,23.97
2018-11-27T00:13:07.419Z,25.70
2018-11-27T00:15:36.879Z,24.00
2018-11-27T00:18:06.240Z,23.13
2018-11-27T00:20:36.036Z,24.43
2018-11-27T00:23:05.083Z,22.40
2018-11-27T00:25:34.856Z,22.40
2018-11-27T00:28:03.924Z,22.40
2018-11-27T00:30:33.054Z,22.50
2018-11-27T00:33:02.050Z,23.17
2018-11-27T00:35:31.114Z,21.07
2018-11-27T00:38:00.207Z,21.47
2018-11-27T00:40:29.271Z,20.83
2018-11-27T00:42:58.358Z,22.30
2018-11-27T00:45:27.546Z,22.57
2018-11-27T00:47:56.553Z,22.70
2018-11-27T00:50:25.649Z,22.57
2018-11-27T00:52:54.676Z,24.17
2018-11-27T00:55:23.800Z,21.90
2018-11-27T00:57:53.349Z,21.60
2018-11-27T01:00:23.298Z,23.97
2018-11-27T01:02:52.304Z,22.53
2018-11-27T01:05:25.865Z,22.97
2018-11-27T01:07:55.014Z,22.67
2018-11-27T01:10:26.428Z,22.77
2018-11-27T01:12:55.452Z,22.63
2018-11-27T01:15:24.447Z,21.77
2018-11-27T01:17:55.884Z,22.80
2018-11-27T01:20:25.433Z,21.70
2018-11-27T01:22:54.441Z,22.53
2018-11-27T01:25:23.439Z,21.63
2018-11-27T01:27:52.463Z,22.93
2018-11-27T01:30:22.469Z,22.33
2018-11-27T01:32:51.805Z,23.23
2018-11-27T01:35:22.219Z,22.17
2018-11-27T01:37:53.160Z,23.53
2018-11-27T01:40:26.851Z,22.83
2018-11-27T01:42:56.793Z,21.83
2018-11-27T01:45:26.124Z,22.47
2018-11-27T01:47:55.085Z,22.43
2018-11-27T01:50:24.064Z,22.27
2018-11-27T01:52:53.062Z,22.77
2018-11-27T01:55:22.787Z,22.90
2018-11-27T01:57:51.743Z,22.60
2018-11-27T02:00:27.679Z,22.80
2018-11-27T02:02:57.299Z,22.93
2018-11-27T02:05:26.763Z,22.57
2018-11-27T02:07:55.786Z,23.87
2018-11-27T02:10:24.887Z,22.43
2018-11-27T02:12:54.905Z,22.73
2018-11-27T02:15:25.168Z,22.60
2018-11-27T02:17:54.175Z,22.53
2018-11-27T02:20:23.183Z,23.70
2018-11-27T02:22:54.276Z,20.77
2018-11-27T02:25:26.670Z,22.20
2018-11-27T02:27:55.769Z,24.37
2018-11-27T02:30:25.901Z,22.77
2018-11-27T02:32:54.870Z,22.17
2018-11-27T02:35:25.482Z,22.40
2018-11-27T02:37:57.593Z,22.33
2018-11-27T02:40:26.592Z,23.20
2018-11-27T02:42:55.613Z,23.00
2018-11-27T02:45:25.591Z,21.33
2018-11-27T02:47:54.831Z,22.60
2018-11-27T02:50:24.819Z,22.60
2018-11-27T02:52:53.882Z,22.43
2018-11-27T02:55:24.059Z,22.67
2018-11-27T02:57:53.070Z,20.83
2018-11-27T03:00:27.305Z,22.93
2018-11-27T03:02:56.522Z,22.23
2018-11-27T03:05:35.832Z,22.10
2018-11-27T03:08:04.864Z,23.00
2018-11-27T03:10:33.925Z,22.00
2018-11-27T03:13:02.906Z,21.13
2018-11-27T03:15:31.912Z,22.13
2018-11-27T03:18:01.000Z,22.17
2018-11-27T03:20:30.055Z,23.47
2018-11-27T03:22:59.122Z,22.57
2018-11-27T03:25:28.173Z,23.77
2018-11-27T03:27:57.227Z,23.30
2018-11-27T03:30:26.935Z,23.37
2018-11-27T03:32:55.962Z,22.07
2018-11-27T03:35:25.792Z,22.70
2018-11-27T03:37:54.887Z,22.00
2018-11-27T03:40:25.187Z,20.63
2018-11-27T03:42:54.279Z,22.23
2018-11-27T03:45:23.913Z,22.00
2018-11-27T03:47:52.929Z,21.83
2018-11-27T03:50:24.864Z,21.57
2018-11-27T03:52:53.843Z,21.73
2018-11-27T03:55:22.833Z,21.70
2018-11-27T03:57:51.847Z,22.67
2018-11-27T04:00:22.782Z,22.20
2018-11-27T04:03:00.523Z,21.77
2018-11-27T04:05:29.594Z,22.60
2018-11-27T04:07:58.586Z,22.23
2018-11-27T04:10:27.540Z,22.57
2018-11-27T04:12:56.544Z,21.67
2018-11-27T04:15:25.522Z,22.27
2018-11-27T04:17:54.517Z,20.87
2018-11-27T04:20:23.466Z,21.50
2018-11-27T04:22:52.493Z,22.03
2018-11-27T04:25:21.577Z,22.63
2018-11-27T04:27:50.659Z,21.03
2018-11-27T04:30:20.580Z,22.37
2018-11-27T04:32:49.587Z,22.20
2018-11-27T04:35:21.003Z,23.10
2018-11-27T04:37:50.054Z,23.50
2018-11-27T04:40:21.545Z,22.80
2018-11-27T04:42:50.767Z,21.70
2018-11-27T04:45:21.934Z,22.20
2018-11-27T04:47:50.933Z,20.97
2018-11-27T04:50:20.475Z,21.07
2018-11-27T04:52:49.516Z,21.23
2018-11-27T04:55:19.965Z,20.93
2018-11-27T04:57:49.613Z,21.53
2018-11-27T05:00:20.555Z,21.80
2018-11-27T05:02:49.564Z,22.00
2018-11-27T05:05:18.706Z,22.57
2018-11-27T05:07:47.774Z,21.80
2018-11-27T05:10:18.710Z,22.20
2018-11-27T05:12:47.801Z,21.50
2018-11-27T05:15:21.356Z,20.33
2018-11-27T05:17:52.810Z,21.57
2018-11-27T05:20:22.012Z,19.63
2018-11-27T05:22:51.122Z,21.07
2018-11-27T05:25:20.557Z,22.07
2018-11-27T05:27:50.728Z,20.57
2018-11-27T05:30:22.820Z,21.37
2018-11-27T05:32:51.814Z,20.17
2018-11-27T05:35:23.048Z,22.10
2018-11-27T05:37:52.115Z,21.43
2018-11-27T05:40:22.254Z,19.70
2018-11-27T05:42:52.815Z,19.50
2018-11-27T05:45:22.616Z,20.17
2018-11-27T05:47:51.621Z,20.27
2018-11-27T05:50:20.627Z,19.47
2018-11-27T05:52:49.633Z,21.43
2018-11-27T05:55:18.877Z,21.50
2018-11-27T05:57:50.161Z,21.47
2018-11-27T06:00:20.326Z,20.40
2018-11-27T06:02:54.442Z,20.87
2018-11-27T06:05:23.714Z,20.07
2018-11-27T06:07:52.785Z,20.77
2018-11-27T06:10:22.455Z,20.47
2018-11-27T06:12:51.625Z,20.20
2018-11-27T06:15:22.143Z,18.47
2018-11-27T06:18:00.323Z,19.80
2018-11-27T06:20:29.535Z,18.63
2018-11-27T06:22:58.608Z,20.70
2018-11-27T06:25:29.854Z,18.33
2018-11-27T06:28:01.185Z,19.77
2018-11-27T06:30:31.058Z,20.00
2018-11-27T06:33:00.181Z,18.63
2018-11-27T06:35:34.388Z,18.90
2018-11-27T06:38:04.802Z,20.13
2018-11-27T06:40:33.825Z,18.87
2018-11-27T06:43:02.878Z,17.97
2018-11-27T06:45:31.912Z,18.80
2018-11-27T06:48:00.973Z,16.83
2018-11-27T06:50:29.978Z,18.73
2018-11-27T06:52:59.060Z,17.83
2018-11-27T06:55:28.010Z,18.20
2018-11-27T06:57:57.053Z,18.73
2018-11-27T07:00:27.107Z,18.63
2018-11-27T07:02:57.092Z,18.33
2018-11-27T07:05:26.062Z,17.47
2018-11-27T07:07:54.999Z,18.53
2018-11-27T07:10:31.987Z,18.53
2018-11-27T07:13:13.448Z,17.93
2018-11-27T07:15:42.484Z,18.47
2018-11-27T07:18:11.457Z,17.57
2018-11-27T07:20:40.461Z,17.70
2018-11-27T07:23:09.556Z,18.57
2018-11-27T07:25:38.667Z,19.40
2018-11-27T07:28:07.698Z,18.17
2018-11-27T07:30:38.467Z,19.43
2018-11-27T07:33:07.499Z,18.53
2018-11-27T07:35:36.881Z,18.60
2018-11-27T07:38:08.818Z,17.77
2018-11-27T07:40:37.804Z,18.50
2018-11-27T07:43:09.563Z,19.20
2018-11-27T07:45:38.897Z,17.60
2018-11-27T07:48:08.779Z,18.57
2018-11-27T07:50:37.989Z,18.80
2018-11-27T07:53:07.338Z,18.30
2018-11-27T07:55:39.329Z,19.10
2018-11-27T07:58:08.754Z,19.37
2018-11-27T08:00:37.790Z,18.13
2018-11-27T08:03:07.196Z,19.13
2018-11-27T08:05:37.531Z,19.70
2018-11-27T08:08:08.470Z,19.13
2018-11-27T08:10:37.444Z,20.93
2018-11-27T08:13:07.430Z,20.93
2018-11-27T08:15:36.397Z,22.23
2018-11-27T08:18:12.223Z,21.83
2018-11-27T08:20:41.332Z,21.33
2018-11-27T08:23:11.216Z,20.70
2018-11-27T08:25:40.202Z,21.37
2018-11-27T08:28:09.196Z,20.80
2018-11-27T08:30:38.164Z,20.43
2018-11-27T08:33:07.514Z,19.07
2018-11-27T08:35:36.515Z,19.23
2018-11-27T08:38:05.742Z,19.00
2018-11-27T08:40:34.759Z,17.93
2018-11-27T08:43:03.995Z,18.33
2018-11-27T08:45:33.025Z,17.13
2018-11-27T08:48:02.121Z,16.37
2018-11-27T08:50:31.198Z,15.37
2018-11-27T08:53:03.506Z,16.23
2018-11-27T08:55:34.911Z,16.77
2018-11-27T08:58:05.627Z,16.40
2018-11-27T09:00:34.720Z,15.27
2018-11-27T09:03:03.777Z,16.00
2018-11-27T09:05:32.751Z,15.67
2018-11-27T09:08:01.725Z,15.77
2018-11-27T09:10:31.465Z,16.20
2018-11-27T09:13:00.620Z,15.50
2018-11-27T09:15:29.390Z,15.13
2018-11-27T09:18:00.268Z,15.67
2018-11-27T09:20:29.426Z,15.93
2018-11-27T09:22:58.389Z,15.80
2018-11-27T09:25:27.357Z,15.27
2018-11-27T09:27:56.346Z,15.77
2018-11-27T09:30:26.881Z,15.13
2018-11-27T09:32:56.521Z,13.60
2018-11-27T09:35:25.465Z,13.60
2018-11-27T09:37:54.457Z,15.07
2018-11-27T09:40:23.663Z,14.47
2018-11-27T09:42:52.668Z,15.73
2018-11-27T09:45:23.929Z,15.23
2018-11-27T09:47:55.124Z,14.30
2018-11-27T09:50:24.139Z,14.47
2018-11-27T09:52:53.148Z,15.13
2018-11-27T09:55:26.298Z,14.00
2018-11-27T09:57:58.931Z,15.10
2018-11-27T10:00:27.813Z,14.97
2018-11-27T10:03:00.775Z,15.83
2018-11-27T10:05:29.719Z,14.97
2018-11-27T10:07:58.819Z,14.80
2018-11-27T10:10:27.865Z,14.73
2018-11-27T10:12:56.860Z,15.47
2018-11-27T10:15:26.920Z,15.40
2018-11-27T10:18:00.593Z,14.47
2018-11-27T10:20:36.017Z,14.53
2018-11-27T10:23:10.731Z,15.00
2018-11-27T10:25:39.727Z,15.83
2018-11-27T10:28:08.888Z,15.87
2018-11-27T10:30:38.337Z,15.43
2018-11-27T10:33:10.467Z,16.47
2018-11-27T10:35:43.353Z,15.73
2018-11-27T10:38:12.300Z,16.43
2018-11-27T10:40:41.262Z,16.53
2018-11-27T10:43:10.618Z,17.50
2018-11-27T10:45:39.704Z,16.60
2018-11-27T10:48:08.618Z,16.30
2018-11-27T10:50:37.720Z,19.10
2018-11-27T10:53:08.396Z,16.53
2018-11-27T10:55:37.375Z,17.63
2018-11-27T10:58:06.755Z,17.57
2018-11-27T11:00:41.244Z,17.13
2018-11-27T11:03:24.890Z,16.47
2018-11-27T11:05:55.257Z,14.90
2018-11-27T11:08:24.251Z,14.23
2018-11-27T11:10:53.359Z,14.57
2018-11-27T11:13:22.323Z,14.97
2018-11-27T11:15:51.273Z,17.53
2018-11-27T11:18:20.225Z,15.33
2018-11-27T11:20:49.190Z,14.47
2018-11-27T11:23:18.317Z,13.10
2018-11-27T11:25:47.340Z,15.03
2018-11-27T11:28:17.825Z,13.33
2018-11-27T11:30:46.845Z,15.10
2018-11-27T11:33:16.243Z,13.33
2018-11-27T11:35:45.425Z,12.97
2018-11-27T11:38:14.559Z,13.27
2018-11-27T11:40:43.625Z,13.37
2018-11-27T11:43:12.709Z,12.80
2018-11-27T11:45:41.744Z,12.53
2018-11-27T11:48:10.731Z,13.37
2018-11-27T11:50:39.753Z,12.67
2018-11-27T11:53:14.404Z,13.80
2018-11-27T11:55:43.856Z,13.40
2018-11-27T11:58:12.852Z,13.77
2018-11-27T12:00:45.127Z,13.37
2018-11-27T12:03:14.176Z,12.37
2018-11-27T12:05:43.372Z,12.27
2018-11-27T12:08:12.402Z,10.90
2018-11-27T12:10:41.382Z,11.90
2018-11-27T12:13:11.592Z,13.27
2018-11-27T12:15:40.648Z,12.73
2018-11-27T12:18:10.108Z,13.20
2018-11-27T12:20:39.982Z,13.73
2018-11-27T12:23:10.765Z,14.40
2018-11-27T12:25:40.320Z,13.40
2018-11-27T12:28:14.721Z,14.97
2018-11-27T12:30:39.021Z,16.10
2018-11-27T12:33:08.060Z,16.13
2018-11-27T12:35:37.065Z,15.70
2018-11-27T12:38:06.222Z,14.80
2018-11-27T12:40:35.175Z,16.30
2018-11-27T12:43:04.183Z,17.90
2018-11-27T12:45:33.631Z,17.47
2018-11-27T12:48:03.440Z,17.07
2018-11-27T12:50:52.135Z,16.87
2018-11-27T12:53:21.183Z,18.13
2018-11-27T12:55:50.766Z,18.77
2018-11-27T12:58:19.843Z,18.70
2018-11-27T13:00:48.787Z,18.90
2018-11-27T13:03:17.815Z,19.07
2018-11-27T13:05:47.134Z,17.87
2018-11-27T13:08:17.609Z,18.57
2018-11-27T13:10:46.636Z,16.47
2018-11-27T13:13:15.655Z,16.57
2018-11-27T13:15:45.150Z,15.63
2018-11-27T13:18:14.129Z,14.63
2018-11-27T13:20:43.080Z,15.07
2018-11-27T13:23:12.115Z,14.90
2018-11-27T13:25:41.177Z,13.90
2018-11-27T13:28:11.384Z,13.43
2018-11-27T13:31:11.603Z,13.97
2018-11-27T13:33:45.879Z,14.43
2018-11-27T13:36:15.065Z,14.47
2018-11-27T13:38:44.150Z,12.83
2018-11-27T13:41:13.235Z,13.33
2018-11-27T13:43:42.275Z,14.57
2018-11-27T13:46:11.389Z,14.60
2018-11-27T13:48:40.433Z,13.60
2018-11-27T13:51:09.407Z,14.90
2018-11-27T13:53:38.447Z,13.87
2018-11-27T13:56:07.488Z,14.93
2018-11-27T13:58:36.795Z,13.70
2018-11-27T14:01:06.733Z,15.27
2018-11-27T14:03:35.869Z,14.43
2018-11-27T14:06:05.033Z,13.33
2018-11-27T14:08:34.032Z,13.13
2018-11-27T14:11:03.049Z,13.50
2018-11-27T14:13:32.183Z,11.93
2018-11-27T14:16:01.206Z,10.73
2018-11-27T14:18:30.240Z,12.33
2018-11-27T14:20:59.210Z,11.13
2018-11-27T14:23:28.204Z,11.47
2018-11-27T14:25:57.164Z,11.57
2018-11-27T14:28:26.142Z,12.27
2018-11-27T14:30:55.140Z,11.30
2018-11-27T14:33:24.126Z,10.80
2018-11-27T14:35:53.136Z,11.90
2018-11-27T14:38:22.247Z,11.50
2018-11-27T14:40:51.226Z,12.23
2018-11-27T14:43:20.255Z,12.30
2018-11-27T14:45:49.326Z,12.47
2018-11-27T14:48:19.178Z,13.30
2018-11-27T14:50:47.535Z,11.97
2018-11-27T14:53:16.542Z,12.27
2018-11-27T14:55:45.522Z,12.70
2018-11-27T14:58:15.139Z,14.10
2018-11-27T15:00:43.613Z,13.53
2018-11-27T15:03:12.645Z,14.33
2018-11-27T15:05:41.621Z,13.37
2018-11-27T15:08:12.568Z,14.40
2018-11-27T15:10:41.629Z,13.97
2018-11-27T15:13:12.314Z,13.50
2018-11-27T15:15:41.341Z,14.03
2018-11-27T15:18:10.354Z,14.23
2018-11-27T15:20:39.375Z,14.47
2018-11-27T15:23:08.518Z,13.67
2018-11-27T15:25:37.549Z,14.13
2018-11-27T15:28:06.613Z,14.83
2018-11-27T15:30:37.283Z,14.20
2018-11-27T15:33:06.954Z,13.40
2018-11-27T15:35:37.522Z,14.57
2018-11-27T15:38:08.109Z,15.37
2018-11-27T15:40:38.496Z,15.30
2018-11-27T15:43:07.603Z,14.40
2018-11-27T15:45:36.655Z,20.70
2018-11-27T15:48:08.182Z,14.00
2018-11-27T15:50:37.162Z,13.33
2018-11-27T15:53:06.223Z,13.63
2018-11-27T15:55:37.864Z,13.53
2018-11-27T15:58:12.368Z,13.57
2018-11-27T16:00:42.120Z,13.43
2018-11-27T16:03:11.107Z,14.00
2018-11-27T16:05:43.424Z,14.20
2018-11-27T16:08:12.682Z,13.90
2018-11-27T16:10:41.740Z,16.30
2018-11-27T16:13:10.703Z,18.10
2018-11-27T16:15:46.244Z,16.20
2018-11-27T16:18:15.221Z,15.90
2018-11-27T16:20:44.337Z,14.67
2018-11-27T16:23:13.336Z,15.30
2018-11-27T16:25:42.319Z,15.23
2018-11-27T16:28:11.403Z,15.23
2018-11-27T16:30:40.573Z,15.30
2018-11-27T16:33:09.526Z,25.17
2018-11-27T16:35:38.590Z,13.27
2018-11-27T16:38:07.722Z,15.07
2018-11-27T16:40:37.841Z,13.87
2018-11-27T16:43:07.270Z,15.30
2018-11-27T16:45:36.273Z,20.13
2018-11-27T16:48:05.575Z,15.87
2018-11-27T16:50:34.709Z,16.87
2018-11-27T16:53:03.707Z,14.90
2018-11-27T16:55:32.705Z,15.53
2018-11-27T16:58:01.728Z,15.33
2018-11-27T17:00:32.529Z,15.00
2018-11-27T17:03:02.640Z,16.23
2018-11-27T17:05:35.135Z,15.23
2018-11-27T17:08:04.162Z,16.07
2018-11-27T17:10:33.153Z,16.47
2018-11-27T17:13:03.040Z,16.00
2018-11-27T17:15:32.052Z,15.93
2018-11-27T17:18:01.206Z,16.73
2018-11-27T17:20:33.215Z,17.33
2018-11-27T17:23:03.760Z,14.73
2018-11-27T17:25:33.040Z,15.27
2018-11-27T17:28:05.097Z,15.23
2018-11-27T17:30:36.813Z,15.23
2018-11-27T17:33:09.526Z,14.90
2018-11-27T17:35:38.649Z,14.90
2018-11-27T17:38:07.848Z,15.50
2018-11-27T17:40:37.206Z,15.87
2018-11-27T17:43:06.851Z,16.37
2018-11-27T17:45:36.115Z,15.70
2018-11-27T17:48:05.745Z,16.30
2018-11-27T17:50:34.903Z,15.53
2018-11-27T17:53:04.033Z,14.93
2018-11-27T17:55:33.062Z,14.47
2018-11-27T17:58:02.554Z,14.60
2018-11-27T18:00:31.805Z,14.73
2018-11-27T18:03:03.206Z,14.40
2018-11-27T18:05:32.270Z,14.63
2018-11-27T18:08:01.546Z,14.07
2018-11-27T18:10:30.757Z,14.00
2018-11-27T18:12:59.763Z,14.00
2018-11-27T18:15:28.898Z,12.27
2018-11-27T18:17:57.950Z,12.07
2018-11-27T18:20:27.226Z,10.87
2018-11-27T18:22:56.243Z,12.10
2018-11-27T18:25:25.230Z,11.90
2018-11-27T18:27:54.226Z,11.07
2018-11-27T18:30:23.819Z,10.67
2018-11-27T18:32:52.988Z,11.73
2018-11-27T18:35:23.103Z,11.87
2018-11-27T18:37:53.888Z,11.30
2018-11-27T18:40:44.195Z,10.33
2018-11-27T18:44:18.921Z,10.60
2018-11-27T18:46:56.880Z,11.80
2018-11-27T18:49:27.686Z,10.33
2018-11-27T18:51:56.852Z,10.60
2018-11-27T18:57:51.449Z,9.80
2018-11-27T19:00:32.317Z,9.93
2018-11-27T19:03:01.956Z,10.03
2018-11-27T19:05:37.830Z,9.73
2018-11-27T19:17:55.021Z,9.67
2018-11-27T19:20:28.459Z,9.50
2018-11-27T19:25:37.561Z,9.23
2018-11-27T19:28:09.583Z,9.40
2018-11-27T19:37:15.317Z,10.00
2018-11-27T19:39:45.058Z,9.53
2018-11-27T19:42:19.228Z,10.57
2018-11-27T19:44:55.232Z,9.27
2018-11-27T19:47:24.616Z,9.90
2018-11-27T19:49:54.163Z,10.40
2018-11-27T19:52:23.938Z,9.87
2018-11-27T19:54:53.220Z,10.07
2018-11-27T19:57:23.887Z,10.40
2018-11-27T20:02:40.820Z,10.13
2018-11-27T20:05:13.303Z,9.87
2018-11-27T20:07:42.714Z,9.83
2018-11-27T20:10:16.489Z,10.47
2018-11-27T20:12:46.533Z,10.03
2018-11-27T20:15:30.309Z,10.63
2018-11-27T20:17:59.468Z,9.90
2018-11-27T20:20:36.197Z,10.80
2018-11-27T20:23:05.887Z,9.57
2018-11-27T20:25:36.978Z,10.27
2018-11-27T20:28:07.418Z,10.80
2018-11-27T20:30:37.765Z,10.17
2018-11-27T20:33:11.845Z,9.80
2018-11-27T20:35:40.951Z,10.00
2018-11-27T20:38:11.454Z,10.03
2018-11-27T20:40:41.523Z,9.53
2018-11-27T20:43:10.676Z,10.70
2018-11-27T20:45:40.184Z,10.00
2018-11-27T20:48:14.477Z,9.20
2018-11-27T20:50:44.322Z,9.27
2018-11-27T20:53:37.155Z,10.17
2018-11-27T20:56:31.430Z,8.83
2018-11-27T21:08:14.975Z,9.67
2018-11-27T21:10:44.188Z,10.50
2018-11-27T21:13:34.323Z,9.93
2018-11-27T21:19:58.377Z,10.67
2018-11-27T21:22:27.794Z,10.77
2018-11-27T21:25:01.137Z,11.10
2018-11-27T21:27:31.374Z,11.43
2018-11-27T21:30:14.661Z,12.10
2018-11-27T21:35:48.411Z,13.30
2018-11-27T21:38:17.993Z,12.73
2018-11-27T21:40:47.809Z,13.07
2018-11-27T21:43:16.945Z,13.97
2018-11-27T21:45:46.770Z,14.00
2018-11-27T21:48:15.910Z,14.60
2018-11-27T21:50:44.974Z,13.93
2018-11-27T21:53:14.065Z,14.00
2018-11-27T21:55:43.395Z,14.80
2018-11-27T21:58:12.499Z,14.77
2018-11-27T22:00:42.287Z,15.37
2018-11-27T22:03:12.153Z,13.20
2018-11-27T22:05:41.473Z,14.03
2018-11-27T22:08:10.798Z,12.90
2018-11-27T22:10:39.893Z,12.80
2018-11-27T22:13:12.574Z,12.37
2018-11-27T22:15:44.217Z,13.33
2018-11-27T22:18:13.933Z,12.13
2018-11-27T22:20:43.169Z,13.57
2018-11-27T22:23:12.532Z,12.40
2018-11-27T22:25:41.962Z,12.90
2018-11-27T22:28:11.099Z,11.80
2018-11-27T22:30:40.234Z,12.30
2018-11-27T22:33:10.556Z,12.27
2018-11-27T22:35:39.686Z,11.43
2018-11-27T22:38:09.251Z,11.97
2018-11-27T22:40:38.595Z,12.27
2018-11-27T22:43:08.061Z,11.03
2018-11-27T22:45:38.473Z,11.53
2018-11-27T22:48:09.708Z,11.83
2018-11-27T22:50:39.046Z,11.80
2018-11-27T22:53:08.799Z,11.60
2018-11-27T22:55:38.124Z,11.63
2018-11-27T22:58:09.655Z,12.50
2018-11-27T23:00:45.833Z,12.07
2018-11-27T23:03:14.905Z,11.53
2018-11-27T23:05:47.118Z,12.57
2018-11-27T23:08:17.510Z,11.40
2018-11-27T23:10:49.197Z,12.73
2018-11-27T23:13:18.461Z,10.90
2018-11-27T23:15:47.512Z,11.37
2018-11-27T23:18:16.716Z,11.77
2018-11-27T23:20:45.701Z,11.37
2018-11-27T23:23:14.776Z,11.57
2018-11-27T23:25:43.922Z,10.53
2018-11-27T23:28:13.092Z,10.83
2018-11-27T23:30:44.290Z,11.77
2018-11-27T23:33:13.286Z,11.53
2018-11-27T23:35:42.597Z,11.60
2018-11-27T23:38:11.817Z,11.57
2018-11-27T23:40:42.490Z,11.37
2018-11-27T23:43:12.749Z,11.87
2018-11-27T23:45:42.004Z,10.80
2018-11-27T23:48:11.120Z,10.03
2018-11-27T23:50:40.662Z,10.57
2018-11-27T23:53:09.732Z,10.30
2018-11-27T23:55:38.960Z,10.27
2018-11-27T23:58:07.977Z,9.70
